Time;durP1;ratioP1;P1;durP2;ratioP2;P2;SDS_P1;SDS_P2;PMS_P1;PMS_P2;Temp;Humidity;BMP_temperature;BMP_pressure;BME280_temperature;BME280_humidity;BME280_pressure;Samples;Min_cycle;Max_cycle;Signal;HPM_P1;HPM_P2
2023/01/14 00:01:03;;;;;;;12.40;6.25;;;;;;;11.96;100.00;101382.69;2096855;28;20036;-82
2023/01/14 00:02:25;;;;;;;12.25;7.25;;;;;;;11.96;100.00;101375.66;2086639;28;20568;-82
2023/01/14 00:03:47;;;;;;;11.18;5.70;;;;;;;11.96;100.00;101383.59;2091763;28;20048;-82
2023/01/14 00:05:12;;;;;;;10.07;6.75;;;;;;;11.97;100.00;101377.44;2094477;28;20268;-82
2023/01/14 00:06:39;;;;;;;8.30;4.65;;;;;;;11.98;100.00;101373.94;2094615;28;20052;-82
2023/01/14 00:08:04;;;;;;;8.93;4.07;;;;;;;12.02;100.00;101373.97;2097186;28;20040;-82
2023/01/14 00:09:29;;;;;;;9.68;4.22;;;;;;;12.02;100.00;101373.97;2094707;28;20037;-83
2023/01/14 00:10:52;;;;;;;13.95;5.80;;;;;;;12.04;100.00;101373.16;2086638;28;20056;-83
2023/01/14 00:12:15;;;;;;;14.02;7.20;;;;;;;12.07;100.00;101380.28;2089097;28;20064;-83
2023/01/14 00:13:38;;;;;;;11.70;6.90;;;;;;;12.08;100.00;101380.28;2091616;28;20044;-82
2023/01/14 00:15:01;;;;;;;15.05;6.70;;;;;;;12.10;100.00;101378.56;2086178;28;20079;-84
2023/01/14 00:16:23;;;;;;;11.95;6.38;;;;;;;12.11;100.00;101380.34;2100560;28;20044;-83
2023/01/14 00:17:47;;;;;;;10.73;5.22;;;;;;;12.12;100.00;101379.50;2101761;28;20047;-83
2023/01/14 00:19:10;;;;;;;19.27;9.25;;;;;;;12.15;100.00;101382.19;2094636;28;20042;-83
2023/01/14 00:20:34;;;;;;;14.80;7.72;;;;;;;12.14;100.00;101376.88;2094092;28;20102;-83
2023/01/14 00:21:56;;;;;;;10.05;6.18;;;;;;;12.14;100.00;101376.88;2101233;28;20566;-82
2023/01/14 00:23:17;;;;;;;12.07;7.10;;;;;;;12.12;100.00;101376.84;2097431;28;20043;-81
2023/01/14 00:24:39;;;;;;;13.80;5.07;;;;;;;12.12;100.00;101368.03;2107955;28;20120;-81
2023/01/14 00:26:02;;;;;;;13.13;5.28;;;;;;;12.13;100.00;101370.69;2110767;28;20138;-81
2023/01/14 00:27:25;;;;;;;9.73;5.95;;;;;;;12.14;100.00;101366.31;2099842;28;20044;-82
2023/01/14 00:28:50;;;;;;;9.13;5.28;;;;;;;12.13;100.00;101365.41;2091801;28;20041;-81
2023/01/14 00:30:12;;;;;;;9.10;4.07;;;;;;;12.15;100.00;101366.31;2085837;28;20045;-79
2023/01/14 00:31:34;;;;;;;10.18;5.07;;;;;;;12.14;100.00;101364.50;2083448;28;20041;-81
2023/01/14 00:32:56;;;;;;;12.20;4.78;;;;;;;12.16;100.00;101364.56;2083660;28;20041;-80
2023/01/14 00:34:18;;;;;;;8.32;3.95;;;;;;;12.17;100.00;101368.97;2082513;28;20048;-81
2023/01/14 00:35:41;;;;;;;8.40;4.13;;;;;;;12.18;100.00;101368.13;2091799;28;20063;-80
2023/01/14 00:37:04;;;;;;;11.20;5.97;;;;;;;12.17;100.00;101367.22;2100004;28;20059;-80
2023/01/14 00:38:26;;;;;;;15.60;8.30;;;;;;;12.18;100.00;101376.97;2102351;28;20487;-81
2023/01/14 00:39:50;;;;;;;16.52;9.68;;;;;;;12.16;100.00;101368.09;2097117;28;20110;-82
2023/01/14 00:41:13;;;;;;;12.02;4.60;;;;;;;12.09;100.00;101370.59;2094513;28;20139;-79
2023/01/14 00:42:35;;;;;;;9.52;5.57;;;;;;;12.02;100.00;101366.94;2090412;28;20722;-80
2023/01/14 00:44:00;;;;;;;12.02;7.82;;;;;;;11.97;100.00;101374.78;2093422;28;20513;-81
2023/01/14 00:45:21;;;;;;;13.65;7.00;;;;;;;11.96;100.00;101385.34;2094241;28;20083;-79
2023/01/14 00:46:44;;;;;;;17.17;5.72;;;;;;;11.94;100.00;101389.72;2092641;28;20106;-78
2023/01/14 00:48:05;;;;;;;7.75;3.85;;;;;;;11.89;100.00;101394.91;2093267;28;20041;-79
2023/01/14 00:49:28;;;;;;;8.10;3.10;;;;;;;11.83;100.00;101399.19;2091932;28;20114;-78
2023/01/14 00:50:50;;;;;;;7.97;3.80;;;;;;;11.73;100.00;101395.44;2097899;28;20050;-79
2023/01/14 00:52:13;;;;;;;11.55;3.88;;;;;;;11.69;100.00;101392.66;2098171;28;20139;-77
2023/01/14 00:53:37;;;;;;;10.65;3.78;;;;;;;11.65;100.00;101402.31;2101059;28;20108;-78
2023/01/14 00:54:58;;;;;;;13.13;4.30;;;;;;;11.60;100.00;101406.59;2087186;28;20045;-78
2023/01/14 00:56:22;;;;;;;11.50;3.47;;;;;;;11.55;100.00;101410.91;2091724;28;20043;-77
2023/01/14 00:57:45;;;;;;;13.35;3.80;;;;;;;11.49;100.00;101416.94;2089775;28;20111;-77
2023/01/14 00:59:11;;;;;;;13.00;5.03;;;;;;;11.43;100.00;101429.13;2092971;28;20087;-77
2023/01/14 01:00:32;;;;;;;17.40;5.03;;;;;;;11.38;100.00;101431.66;2087644;28;20045;-77
2023/01/14 01:01:55;;;;;;;11.57;5.10;;;;;;;11.35;100.00;101430.72;2084278;28;20059;-77
2023/01/14 01:03:17;;;;;;;11.88;4.38;;;;;;;11.35;100.00;101434.25;2084265;28;20045;-77
2023/01/14 01:04:39;;;;;;;11.93;4.93;;;;;;;11.36;100.00;101432.47;2092616;28;20044;-77
2023/01/14 01:06:02;;;;;;;13.60;6.38;;;;;;;11.36;100.00;101428.09;2086981;28;20056;-78
2023/01/14 01:07:25;;;;;;;9.75;5.47;;;;;;;11.36;100.00;101433.38;2092733;28;20143;-78
2023/01/14 01:08:48;;;;;;;9.15;5.05;;;;;;;11.35;100.00;101433.38;2090313;28;20045;-78
2023/01/14 01:10:10;;;;;;;6.38;3.78;;;;;;;11.37;100.00;101436.91;2084336;28;20098;-77
2023/01/14 01:11:32;;;;;;;8.52;4.40;;;;;;;11.40;100.00;101435.25;2084451;28;20448;-77
2023/01/14 01:12:54;;;;;;;11.07;4.75;;;;;;;11.44;100.00;101436.19;2084488;28;20099;-78
2023/01/14 01:14:16;;;;;;;11.10;4.50;;;;;;;11.45;100.00;101435.34;2092384;28;20129;-79
2023/01/14 01:15:39;;;;;;;9.05;4.53;;;;;;;11.47;100.00;101428.34;2096859;28;20081;-78
2023/01/14 01:17:02;;;;;;;13.50;7.88;;;;;;;11.47;100.00;101428.34;2106322;28;20044;-79
2023/01/14 01:18:23;;;;;;;13.57;8.38;;;;;;;11.46;100.00;101431.84;2086907;28;20564;-79
2023/01/14 01:19:46;;;;;;;13.52;5.45;;;;;;;11.45;100.00;101428.31;2084484;28;20049;-80
2023/01/14 01:21:14;;;;;;;12.68;5.20;;;;;;;11.47;100.00;101429.25;2087839;28;20071;-79
2023/01/14 01:22:37;;;;;;;10.52;5.28;;;;;;;11.47;100.00;101421.31;2094283;28;20055;-80
2023/01/14 01:23:58;;;;;;;11.20;6.55;;;;;;;11.48;100.00;101428.38;2084401;28;20041;-80
2023/01/14 01:25:21;;;;;;;12.43;7.00;;;;;;;11.48;100.00;101422.22;2092907;28;20131;-80
2023/01/14 01:26:45;;;;;;;15.32;8.25;;;;;;;11.44;100.00;101420.34;2095431;28;20052;-80
2023/01/14 01:28:08;;;;;;;13.02;7.97;;;;;;;11.41;100.00;101410.59;2096070;28;20440;-81
2023/01/14 01:29:31;;;;;;;10.18;6.70;;;;;;;11.40;100.00;101424.69;2095881;28;20055;-81
2023/01/14 01:30:52;;;;;;;14.40;8.13;;;;;;;11.40;100.00;101416.75;2102988;28;20059;-80
2023/01/14 01:32:15;;;;;;;11.60;6.22;;;;;;;11.42;100.00;101411.50;2095629;28;20053;-81
2023/01/14 01:33:37;;;;;;;10.80;5.65;;;;;;;11.46;100.00;101413.34;2087500;28;20045;-82
2023/01/14 01:34:59;;;;;;;9.30;4.90;;;;;;;11.48;100.00;101416.91;2092762;28;20405;-82
2023/01/14 01:36:26;;;;;;;9.43;4.60;;;;;;;11.49;100.00;101416.94;2092416;28;20060;-82
2023/01/14 01:37:47;;;;;;;9.52;4.40;;;;;;;11.52;100.00;101419.66;2101903;28;20047;-82
2023/01/14 01:39:10;;;;;;;10.55;5.07;;;;;;;11.52;100.00;101413.47;2089671;28;20099;-82
2023/01/14 01:40:32;;;;;;;11.15;5.07;;;;;;;11.53;100.00;101415.25;2101458;28;20052;-81
2023/01/14 01:41:54;;;;;;;8.65;4.82;;;;;;;11.53;100.00;101417.91;2110161;28;20043;-81
2023/01/14 01:43:18;;;;;;;10.90;4.80;;;;;;;11.53;100.00;101407.34;2098077;28;20102;-80
2023/01/14 01:45:25;;;;;;;10.65;5.18;;;;;;;11.53;100.00;101404.69;2101081;28;20063;-80
2023/01/14 01:46:47;;;;;;;11.93;4.70;;;;;;;11.51;100.00;101402.00;2104594;28;20409;-79
2023/01/14 01:48:16;;;;;;;13.45;7.60;;;;;;;11.51;100.00;101404.66;2097395;28;20144;-80
2023/01/14 01:49:39;;;;;;;13.13;6.47;;;;;;;11.54;100.00;101395.91;2090982;28;20049;-81
2023/01/14 01:51:07;;;;;;;12.77;5.80;;;;;;;11.55;100.00;101392.41;2085107;28;20094;-81
2023/01/14 01:52:31;;;;;;;13.88;5.05;;;;;;;11.58;100.00;101398.63;2086187;28;20060;-81
2023/01/14 01:53:55;;;;;;;13.80;5.32;;;;;;;11.59;100.00;101392.50;2093077;28;20060;-82
2023/01/14 01:55:19;;;;;;;13.85;6.80;;;;;;;11.61;100.00;101395.19;2086726;28;20070;-82
2023/01/14 01:56:46;;;;;;;12.43;6.22;;;;;;;11.64;100.00;101402.25;2079769;28;20048;-82
2023/01/14 01:58:11;;;;;;;24.27;12.43;;;;;;;11.64;100.00;101396.97;2083932;28;20040;-83
2023/01/14 01:59:36;;;;;;;20.00;10.45;;;;;;;11.64;100.00;101397.88;2101475;28;20052;-83
2023/01/14 02:00:58;;;;;;;20.00;10.45;;;;;;;11.65;100.00;101401.41;2089835;28;20106;-83
2023/01/14 02:02:21;;;;;;;14.55;8.07;;;;;;;11.66;100.00;101395.25;2096649;28;20072;-84
2023/01/14 02:03:46;;;;;;;21.42;14.88;;;;;;;11.66;100.00;101400.56;2095681;28;20037;-85
2023/01/14 02:05:08;;;;;;;25.05;11.85;;;;;;;11.68;100.00;101396.19;2093685;28;20048;-84
2023/01/14 02:06:31;;;;;;;17.77;10.48;;;;;;;11.69;100.00;101405.91;2100965;28;20126;-84
2023/01/14 02:07:57;;;;;;;19.42;12.02;;;;;;;11.70;100.00;101402.41;2095563;28;20045;-83
2023/01/14 02:09:20;;;;;;;23.27;11.38;;;;;;;11.69;100.00;101392.66;2101661;28;20127;-84
2023/01/14 02:11:14;;;;;;;16.65;8.75;;;;;;;11.69;100.00;101398.84;2089668;28;20057;-85
2023/01/14 02:12:49;;;;;;;11.85;6.78;;;;;;;11.68;100.00;101401.50;2078501;28;20053;-84
2023/01/14 02:14:22;;;;;;;12.55;6.93;;;;;;;11.68;100.00;101399.75;2096268;28;20059;-84
2023/01/14 02:15:56;;;;;;;9.98;4.45;;;;;;;11.66;100.00;101393.50;2088680;28;20049;-84
2023/01/14 02:17:28;;;;;;;9.52;4.57;;;;;;;11.66;100.00;101397.91;2094070;28;20048;-85
2023/01/14 02:19:06;;;;;;;10.57;4.28;;;;;;;11.65;100.00;101399.66;2095607;28;20040;-85
2023/01/14 02:20:35;;;;;;;11.02;4.20;;;;;;;11.65;100.00;101399.66;2104766;28;20075;-83
2023/01/14 02:22:12;;;;;;;11.90;4.03;;;;;;;11.65;100.00;101404.94;2104873;28;20135;-85
2023/01/14 02:24:12;;;;;;;8.68;3.90;;;;;;;11.64;100.00;101404.91;2097980;28;20045;-84
2023/01/14 02:26:01;;;;;;;10.55;4.43;;;;;;;11.63;100.00;101405.75;2106511;28;20075;-85
2023/01/14 02:27:37;;;;;;;10.07;4.32;;;;;;;11.59;100.00;101399.53;2097755;28;20048;-83
2023/01/14 02:29:28;;;;;;;9.50;4.32;;;;;;;11.57;100.00;101401.25;2104312;28;20508;-82
2023/01/14 02:31:01;;;;;;;9.38;4.35;;;;;;;11.54;100.00;101406.47;2098077;28;20552;-84
2023/01/14 02:32:34;;;;;;;8.18;3.80;;;;;;;11.53;100.00;101404.69;2096792;28;20040;-83
2023/01/14 02:34:07;;;;;;;8.18;4.05;;;;;;;11.52;100.00;101409.09;2103078;28;20054;-83
2023/01/14 02:35:44;;;;;;;9.27;4.20;;;;;;;11.50;100.00;101410.78;2096285;28;20078;-84
2023/01/14 02:37:13;;;;;;;9.30;4.68;;;;;;;11.50;100.00;101410.78;2103381;28;20165;-83
2023/01/14 02:38:44;;;;;;;9.05;4.45;;;;;;;11.51;100.00;101417.88;2104757;28;20429;-83
2023/01/14 02:40:12;;;;;;;11.75;5.10;;;;;;;11.53;100.00;101415.25;2104561;28;20080;-83
2023/01/14 02:45:13;;;;;;;8.05;4.45;;;;;;;11.55;100.00;101416.19;2106056;28;20117;-82
2023/01/14 02:46:42;;;;;;;9.52;4.20;;;;;;;11.56;100.00;101421.50;2095941;28;20072;-83
2023/01/14 02:48:06;;;;;;;9.07;4.80;;;;;;;11.58;100.00;101426.81;2095655;28;20452;-82
2023/01/14 02:49:37;;;;;;;9.50;4.47;;;;;;;11.59;100.00;101420.69;2093622;28;20048;-83
2023/01/14 02:50:59;;;;;;;9.55;4.15;;;;;;;11.59;100.00;101420.69;2095348;28;20558;-82
2023/01/14 02:52:22;;;;;;;17.33;14.45;;;;;;;11.62;100.00;101422.53;2095027;28;20045;-82
2023/01/14 02:53:44;;;;;;;18.20;9.70;;;;;;;11.61;100.00;101426.03;2097737;28;20040;-82
2023/01/14 02:55:28;;;;;;;8.93;5.35;;;;;;;11.60;100.00;101422.47;2097408;28;20127;-84
2023/01/14 02:56:54;;;;;;;11.77;5.85;;;;;;;11.61;100.00;101424.28;2096340;28;20566;-83
2023/01/14 02:58:40;;;;;;;9.38;5.35;;;;;;;11.62;100.00;101427.81;2101482;28;20135;-83
2023/01/14 03:00:14;;;;;;;15.68;9.32;;;;;;;11.62;100.00;101430.44;2097734;28;20049;-82
2023/01/14 03:01:59;;;;;;;15.05;11.18;;;;;;;11.63;100.00;101432.22;2103610;28;20508;-82
2023/01/14 03:03:36;;;;;;;8.05;4.30;;;;;;;11.63;100.00;101437.50;2097895;28;20599;-82
2023/01/14 03:05:14;;;;;;;8.52;3.70;;;;;;;11.63;100.00;101437.50;2092460;28;20139;-82
2023/01/14 03:06:49;;;;;;;6.28;3.60;;;;;;;11.58;100.00;101434.75;2104489;28;20048;-83
2023/01/14 03:08:22;;;;;;;10.00;6.55;;;;;;;11.56;100.00;101447.03;2096734;28;20052;-83
2023/01/14 03:10:05;;;;;;;10.80;7.63;;;;;;;11.52;100.00;101456.69;2097169;28;20113;-83
2023/01/14 03:11:31;;;;;;;;;;;;;;;11.38;100.00;101452.81;2097873;28;20151;-80
2023/01/14 03:13:07;;;;;;;11.23;6.10;;;;;;;11.32;100.00;101457.97;2093164;28;19924;-80
2023/01/14 03:16:16;;;;;;;17.25;12.02;;;;;;;11.19;100.00;101445.31;2096946;28;20097;-82
2023/01/14 03:17:47;;;;;;;29.80;16.35;;;;;;;11.13;100.00;101451.34;2101158;28;20056;-80
2023/01/14 03:19:14;;;;;;;39.78;17.30;;;;;;;11.08;100.00;101449.44;2093472;28;20040;-79
2023/01/14 03:20:40;;;;;;;32.10;14.38;;;;;;;11.04;100.00;101453.75;2092906;28;20056;-78
2023/01/14 03:22:06;;;;;;;45.80;20.33;;;;;;;11.05;100.00;101447.63;2092879;28;20044;-78
2023/01/14 03:23:33;;;;;;;42.30;21.00;;;;;;;11.06;100.00;101438.84;2092166;28;20052;-78
2023/01/14 03:24:57;;;;;;;18.08;9.20;;;;;;;11.09;100.00;101441.53;2097249;28;20550;-79
2023/01/14 03:26:22;;;;;;;40.67;22.80;;;;;;;11.10;100.00;101445.97;2092596;28;20045;-78
2023/01/14 03:27:48;;;;;;;27.02;14.05;;;;;;;11.13;100.00;101432.84;2100723;28;20052;-79
2023/01/14 03:29:14;;;;;;;22.52;11.68;;;;;;;11.17;100.00;101437.34;2094416;28;20052;-78
2023/01/14 03:30:41;;;;;;;28.65;15.55;;;;;;;11.17;100.00;101431.16;2094480;28;20052;-79
2023/01/14 03:32:08;;;;;;;20.20;11.60;;;;;;;11.15;100.00;101427.59;2093280;28;20045;-79
2023/01/14 03:33:39;;;;;;;16.45;9.20;;;;;;;11.14;100.00;101439.03;2093094;28;20379;-79
2023/01/14 03:35:07;;;;;;;14.05;7.97;;;;;;;11.16;100.00;101438.19;2088911;28;20045;-79
2023/01/14 03:36:34;;;;;;;13.05;7.50;;;;;;;11.19;100.00;101426.81;2093213;28;20563;-79
2023/01/14 03:38:02;;;;;;;10.25;6.93;;;;;;;11.18;100.00;101427.66;2094478;28;20048;-79
2023/01/14 03:39:28;;;;;;;15.77;7.25;;;;;;;11.16;100.00;101424.97;2092261;28;20043;-79
2023/01/14 03:40:53;;;;;;;9.68;5.53;;;;;;;11.11;100.00;101421.34;2099052;28;20118;-80
2023/01/14 03:42:20;;;;;;;10.43;5.07;;;;;;;11.08;100.00;101417.75;2094633;28;20048;-81
2023/01/14 03:43:48;;;;;;;15.07;7.15;;;;;;;11.05;100.00;101429.13;2101957;28;20059;-81
2023/01/14 03:45:15;;;;;;;15.93;8.90;;;;;;;11.03;100.00;101422.91;2102771;28;20074;-80
2023/01/14 03:46:37;;;;;;;10.48;5.25;;;;;;;11.04;100.00;101435.25;2103405;28;20040;-79
2023/01/14 03:48:00;;;;;;;11.55;5.20;;;;;;;11.04;100.00;101424.69;2094171;28;20044;-81
2023/01/14 03:49:23;;;;;;;11.40;5.50;;;;;;;11.09;100.00;101436.25;2092058;28;20091;-80
2023/01/14 03:50:55;;;;;;;8.88;5.30;;;;;;;11.15;100.00;101428.50;2099211;28;20047;-81
2023/01/14 03:52:26;;;;;;;10.23;5.47;;;;;;;11.18;100.00;101425.91;2104226;28;20052;-82
2023/01/14 03:53:56;;;;;;;10.75;5.72;;;;;;;11.20;100.00;101423.31;2087367;28;20041;-81
2023/01/14 03:55:26;;;;;;;10.95;5.28;;;;;;;11.21;100.00;101424.22;2095479;28;20067;-83
2023/01/14 03:56:59;;;;;;;11.77;5.45;;;;;;;11.23;100.00;101428.66;2095379;28;20102;-82
2023/01/14 03:58:31;;;;;;;9.43;4.78;;;;;;;11.25;100.00;101431.34;2088341;28;20052;-83
2023/01/14 04:00:03;;;;;;;8.50;5.22;;;;;;;11.28;100.00;101436.72;2086409;28;20045;-82
2023/01/14 04:01:41;;;;;;;11.23;4.30;;;;;;;11.28;100.00;101437.63;2105150;28;20048;-82
2023/01/14 04:03:05;;;;;;;8.57;3.97;;;;;;;11.32;100.00;101438.56;2091837;28;20032;-83
2023/01/14 04:04:31;;;;;;;11.38;3.95;;;;;;;11.32;100.00;101435.91;2094696;28;20064;-82
2023/01/14 04:05:55;;;;;;;10.45;3.70;;;;;;;11.35;100.00;101436.00;2092250;28;20055;-84
2023/01/14 04:07:20;;;;;;;13.05;3.97;;;;;;;11.39;100.00;101441.38;2092698;28;20398;-83
2023/01/14 04:08:42;;;;;;;8.57;3.50;;;;;;;11.42;100.00;101438.78;2091228;28;20068;-84
2023/01/14 04:10:06;;;;;;;10.63;4.50;;;;;;;11.45;100.00;101438.00;2099598;28;20044;-84
2023/01/14 04:11:28;;;;;;;11.32;3.83;;;;;;;11.48;100.00;101435.44;2094524;28;20143;-84
2023/01/14 04:16:08;;;;;;;9.93;3.55;;;;;;;11.56;100.00;101429.44;2072092;28;20118;-83
2023/01/14 04:17:33;;;;;;;8.65;3.97;;;;;;;11.58;100.00;101448.88;2087921;28;20577;-83
2023/01/14 04:18:55;;;;;;;9.65;4.07;;;;;;;11.60;100.00;101443.63;2094731;28;20059;-83
2023/01/14 04:20:18;;;;;;;9.73;3.50;;;;;;;11.60;100.00;101438.34;2085988;28;20099;-83
2023/01/14 04:21:42;;;;;;;10.18;3.63;;;;;;;11.58;100.00;101446.22;2092118;28;20098;-84
2023/01/14 04:23:03;;;;;;;8.80;3.55;;;;;;;11.57;100.00;101448.84;2096390;28;20040;-83
2023/01/14 04:24:25;;;;;;;11.85;3.67;;;;;;;11.56;100.00;101452.34;2096474;28;20144;-84
2023/01/14 04:25:46;;;;;;;11.85;3.85;;;;;;;11.52;100.00;101446.09;2100228;28;20048;-84
2023/01/14 04:27:09;;;;;;;9.45;3.63;;;;;;;11.53;100.00;101452.28;2093543;28;20040;-84
2023/01/14 04:28:31;;;;;;;12.10;3.38;;;;;;;11.52;100.00;101451.38;2099972;28;20721;-83
2023/01/14 04:29:53;;;;;;;9.80;3.40;;;;;;;11.52;100.00;101450.50;2102858;28;20051;-84
2023/01/14 04:31:15;;;;;;;9.80;3.53;;;;;;;11.52;100.00;101455.78;2102765;28;20044;-83
2023/01/14 04:32:37;;;;;;;7.03;3.50;;;;;;;11.53;100.00;101453.19;2101502;28;20048;-84
2023/01/14 04:33:59;;;;;;;9.32;3.30;;;;;;;11.52;100.00;101448.75;2085708;28;20057;-83
2023/01/14 04:35:26;;;;;;;9.10;3.53;;;;;;;11.54;100.00;101446.13;2091751;28;20171;-84
2023/01/14 04:36:49;;;;;;;7.22;2.78;;;;;;;11.53;100.00;101444.34;2088486;28;20056;-83
2023/01/14 04:38:12;;;;;;;7.82;2.92;;;;;;;11.52;100.00;101439.91;2100373;28;20044;-84
2023/01/14 04:39:34;;;;;;;11.27;3.38;;;;;;;11.49;100.00;101446.00;2094416;28;20033;-84
2023/01/14 04:40:57;;;;;;;8.77;3.20;;;;;;;11.46;100.00;101453.91;2091516;28;20484;-85
2023/01/14 04:42:28;;;;;;;9.32;3.60;;;;;;;11.45;100.00;101454.75;2100563;28;20383;-84
2023/01/14 04:43:49;;;;;;;8.45;4.05;;;;;;;11.45;100.00;101453.84;2095567;28;20145;-84
2023/01/14 04:45:12;;;;;;;8.50;2.95;;;;;;;11.44;100.00;101452.97;2093023;28;20083;-84
2023/01/14 04:46:33;;;;;;;8.02;3.22;;;;;;;11.46;100.00;101453.91;2100133;28;20036;-84
2023/01/14 04:47:56;;;;;;;8.82;3.80;;;;;;;11.47;100.00;101452.16;2093708;28;20556;-83
2023/01/14 04:49:17;;;;;;;12.00;4.03;;;;;;;11.49;100.00;101460.97;2099839;28;20064;-85
2023/01/14 04:50:44;;;;;;;14.45;5.00;;;;;;;11.49;100.00;101461.88;2095678;28;20049;-85
2023/01/14 04:52:05;;;;;;;8.73;3.15;;;;;;;11.50;100.00;101452.19;2092786;28;20036;-86
2023/01/14 04:53:27;;;;;;;9.68;3.35;;;;;;;11.49;100.00;101447.75;2091604;28;20048;-84
2023/01/14 04:54:49;;;;;;;9.27;3.80;;;;;;;11.49;100.00;101453.03;2099838;28;20528;-86
2023/01/14 04:56:11;;;;;;;9.23;3.22;;;;;;;11.45;100.00;101446.81;2102013;28;20135;-85
2023/01/14 04:57:32;;;;;;;8.18;3.20;;;;;;;11.43;100.00;101455.56;2102303;28;20160;-85
2023/01/14 04:58:55;;;;;;;5.97;2.58;;;;;;;11.40;100.00;101451.09;2093384;28;20040;-86
2023/01/14 05:00:18;;;;;;;11.38;3.20;;;;;;;11.36;100.00;101451.88;2090323;28;20045;-85
2023/01/14 05:01:40;;;;;;;7.68;2.83;;;;;;;11.35;100.00;101457.16;2091406;28;20110;-85
2023/01/14 05:03:03;;;;;;;7.40;3.08;;;;;;;11.31;100.00;101460.56;2100118;28;20268;-86
2023/01/14 05:04:25;;;;;;;11.35;3.28;;;;;;;11.26;100.00;101457.81;2094120;28;20585;-86
2023/01/14 05:05:49;;;;;;;9.50;3.17;;;;;;;11.24;100.00;101463.91;2093307;28;20044;-85
2023/01/14 05:07:10;;;;;;;8.27;2.92;;;;;;;11.20;100.00;101457.66;2091813;28;20059;-85
2023/01/14 05:08:32;;;;;;;6.25;3.17;;;;;;;11.18;100.00;101457.63;2099484;28;20051;-85
2023/01/14 05:09:54;;;;;;;8.45;2.75;;;;;;;11.18;100.00;101454.09;2096030;28;20044;-84
2023/01/14 05:11:22;;;;;;;8.25;3.03;;;;;;;11.18;100.00;101462.91;2099610;28;20048;-84
2023/01/14 05:12:57;;;;;;;6.88;3.22;;;;;;;11.19;100.00;101469.09;2105051;28;20139;-85
2023/01/14 05:14:21;;;;;;;10.75;5.13;;;;;;;11.19;100.00;101462.06;2095198;28;20059;-85
2023/01/14 05:15:44;;;;;;;14.27;6.25;;;;;;;11.22;100.00;101466.53;2099800;28;20520;-85
2023/01/14 05:17:08;;;;;;;11.60;5.53;;;;;;;11.23;100.00;101467.41;2099847;28;20079;-85
2023/01/14 05:18:31;;;;;;;24.42;10.52;;;;;;;11.23;100.00;101477.97;2086078;28;20036;-84
2023/01/14 05:19:52;;;;;;;20.45;9.45;;;;;;;11.21;100.00;101463.84;2097469;28;20485;-85
2023/01/14 05:21:18;;;;;;;28.90;12.98;;;;;;;11.19;100.00;101469.09;2102433;28;20047;-85
2023/01/14 05:22:42;;;;;;;33.65;15.98;;;;;;;11.18;100.00;101473.47;2102691;28;20100;-86
2023/01/14 05:24:05;;;;;;;21.88;11.55;;;;;;;11.20;100.00;101470.88;2093963;28;20044;-85
2023/01/14 05:25:28;;;;;;;35.28;17.92;;;;;;;11.19;100.00;101483.19;2093967;28;20166;-85
2023/01/14 05:26:50;;;;;;;25.77;15.60;;;;;;;11.18;100.00;101475.22;2085959;28;20045;-84
2023/01/14 05:28:15;;;;;;;15.63;9.77;;;;;;;11.17;100.00;101482.25;2091605;28;20089;-84
2023/01/14 05:29:38;;;;;;;13.18;5.45;;;;;;;11.16;100.00;101472.53;2095304;28;20143;-83
2023/01/14 05:31:00;;;;;;;11.82;8.18;;;;;;;11.14;100.00;101479.56;2098295;28;20056;-83
2023/01/14 05:32:23;;;;;;;9.48;5.60;;;;;;;11.16;100.00;101472.53;2095796;28;20458;-83
2023/01/14 05:33:45;;;;;;;9.63;5.13;;;;;;;11.17;100.00;101476.97;2095661;28;20502;-84
2023/01/14 05:35:09;;;;;;;11.80;6.88;;;;;;;11.17;100.00;101482.25;2095558;28;20068;-84
2023/01/14 05:36:33;;;;;;;11.85;7.35;;;;;;;11.18;100.00;101488.44;2095738;28;20053;-83
2023/01/14 05:37:55;;;;;;;17.70;11.50;;;;;;;11.18;100.00;101486.69;2087220;28;20045;-83
2023/01/14 05:39:18;;;;;;;18.90;14.45;;;;;;;11.19;100.00;101488.50;2101205;28;20063;-83
2023/01/14 05:40:39;;;;;;;18.02;13.57;;;;;;;11.23;100.00;101489.44;2094056;28;20627;-82
2023/01/14 05:45:41;;;;;;;10.50;5.70;;;;;;;11.26;100.00;101493.91;2094220;28;20044;-83
2023/01/14 05:47:04;;;;;;;8.65;3.50;;;;;;;11.26;100.00;101492.19;2101774;28;20142;-81
2023/01/14 05:48:27;;;;;;;7.55;3.50;;;;;;;11.28;100.00;101493.13;2099775;28;20051;-82
2023/01/14 05:49:48;;;;;;;6.93;3.80;;;;;;;11.30;100.00;101494.03;2103790;28;20059;-82
2023/01/14 05:51:13;;;;;;;6.88;3.28;;;;;;;11.30;100.00;101501.94;2103611;28;20405;-83
2023/01/14 05:52:35;;;;;;;6.60;3.10;;;;;;;11.32;100.00;101500.25;2104072;28;20051;-85
2023/01/14 05:53:58;;;;;;;5.38;2.88;;;;;;;11.35;100.00;101497.69;2103796;28;20539;-82
2023/01/14 05:55:19;;;;;;;6.22;2.78;;;;;;;11.35;100.00;101500.34;2103919;28;20493;-83
2023/01/14 05:56:41;;;;;;;6.35;2.63;;;;;;;11.35;100.00;101486.22;2102843;28;20090;-84
2023/01/14 05:58:04;;;;;;;6.28;4.35;;;;;;;11.34;100.00;101498.56;2103425;28;20032;-84
2023/01/14 05:59:27;;;;;;;6.43;4.40;;;;;;;11.38;100.00;101504.78;2103910;28;20455;-83
2023/01/14 06:07:25;;;;;;;11.90;9.00;;;;;;;11.52;100.00;101500.72;2090367;28;20533;-83
2023/01/14 06:08:48;;;;;;;7.28;4.53;;;;;;;11.54;100.00;101499.91;2101129;28;20758;-83
2023/01/14 06:10:11;;;;;;;5.70;3.67;;;;;;;11.56;100.00;101505.22;2103887;28;20036;-84
2023/01/14 06:11:32;;;;;;;7.78;4.35;;;;;;;11.57;100.00;101502.63;2103646;28;20048;-83
2023/01/14 06:13:05;;;;;;;7.13;4.45;;;;;;;11.58;100.00;101503.50;2103464;28;20101;-84
2023/01/14 06:14:27;;;;;;;8.80;4.60;;;;;;;11.59;100.00;101500.03;2104506;28;20059;-83
2023/01/14 06:15:51;;;;;;;6.90;3.10;;;;;;;11.61;100.00;101498.31;2092788;28;20029;-84
2023/01/14 06:17:21;;;;;;;11.23;8.10;;;;;;;11.61;100.00;101503.59;2095678;28;20044;-83
2023/01/14 06:18:42;;;;;;;16.98;6.68;;;;;;;11.63;100.00;101503.59;2096119;28;20045;-84
2023/01/14 06:20:05;;;;;;;9.07;6.65;;;;;;;11.65;100.00;101507.19;2086970;28;20055;-84
2023/01/14 06:21:30;;;;;;;20.17;9.68;;;;;;;11.69;100.00;101506.38;2102990;28;20190;-83
2023/01/14 06:22:54;;;;;;;11.27;7.85;;;;;;;11.71;100.00;101509.97;2098115;28;20051;-84
2023/01/14 06:24:19;;;;;;;9.68;4.40;;;;;;;11.75;100.00;101502.16;2095442;28;20052;-84
2023/01/14 06:25:42;;;;;;;12.85;5.68;;;;;;;11.82;100.00;101509.38;2095005;28;20136;-84
2023/01/14 06:27:05;;;;;;;10.02;4.07;;;;;;;11.87;100.00;101507.75;2088056;28;20033;-84
2023/01/14 06:28:27;;;;;;;11.77;7.05;;;;;;;11.93;100.00;101510.53;2095075;28;20094;-84
2023/01/14 06:29:51;;;;;;;43.95;26.58;;;;;;;11.99;100.00;101512.44;2103316;28;20509;-84
2023/01/14 06:31:16;;;;;;;18.15;9.60;;;;;;;12.04;100.00;101510.75;2095071;28;20053;-84
2023/01/14 06:32:37;;;;;;;12.05;8.15;;;;;;;12.07;100.00;101505.56;2093301;28;20130;-83
2023/01/14 06:34:01;;;;;;;13.82;8.18;;;;;;;12.11;100.00;101511.78;2099990;28;20062;-84
2023/01/14 06:35:24;;;;;;;12.63;8.02;;;;;;;12.14;100.00;101514.50;2097904;28;20052;-84
2023/01/14 06:36:47;;;;;;;17.30;13.50;;;;;;;12.17;100.00;101517.22;2086730;28;20136;-84
2023/01/14 06:38:08;;;;;;;38.72;32.60;;;;;;;12.19;100.00;101515.50;2092544;28;20107;-83
2023/01/14 06:39:32;;;;;;;25.80;17.77;;;;;;;12.19;100.00;101518.16;2103166;28;20503;-84
2023/01/14 06:40:58;;;;;;;17.70;13.60;;;;;;;12.20;100.00;101514.66;2097121;28;20470;-85
2023/01/14 06:42:20;;;;;;;22.05;16.92;;;;;;;12.21;100.00;101519.94;2087272;28;20087;-85
2023/01/14 06:43:44;;;;;;;24.25;12.25;;;;;;;12.22;100.00;101519.09;2092517;28;20053;-85
2023/01/14 06:45:06;;;;;;;19.58;11.13;;;;;;;12.23;100.00;101522.63;2103043;28;20081;-85
2023/01/14 06:46:30;;;;;;;14.85;7.20;;;;;;;12.25;100.00;101518.28;2103408;28;20063;-84
2023/01/14 06:47:53;;;;;;;8.93;5.13;;;;;;;12.27;100.00;101519.22;2097225;28;20087;-84
2023/01/14 06:49:17;;;;;;;11.13;5.18;;;;;;;12.29;100.00;101522.75;2099601;28;20489;-84